Time;durP1;ratioP1;P1;durP2;ratioP2;P2;SDS_P1;SDS_P2;PMS_P1;PMS_P2;Temp;Humidity;BMP_temperature;BMP_pressure;BME280_temperature;BME280_humidity;BME280_pressure;Samples;Min_cycle;Max_cycle;Signal;HPM_P1;HPM_P2
2022/09/08 11:48:35;;;;;;;3.13;2.00;;;;;;;11.38;58.66;102470.94;5464066;23;20057;-71
2022/09/08 11:51:33;;;;;;;2.40;1.37;;;;;;;11.14;56.56;102481.81;5032717;28;20072;-69
2022/09/08 11:54:17;;;;;;;3.10;1.40;;;;;;;10.97;58.21;102482.31;5032937;28;20530;-70
2022/09/08 11:57:12;;;;;;;1.30;1.20;;;;;;;10.93;57.79;102480.84;5036248;28;20446;-74
2022/09/08 11:59:50;;;;;;;1.20;1.03;;;;;;;11.09;59.14;102476.00;5024634;28;20049;-67
2022/09/08 12:02:21;;;;;;;2.75;1.33;;;;;;;11.27;59.29;102469.16;5032676;28;20037;-68
2022/09/08 12:05:02;;;;;;;3.63;1.67;;;;;;;11.45;58.75;102470.31;5032310;28;20127;-70
2022/09/08 12:07:40;;;;;;;2.87;1.50;;;;;;;11.55;58.63;102466.88;5032784;28;20604;-69
2022/09/08 12:10:27;;;;;;;5.03;1.30;;;;;;;11.95;58.69;102467.94;5032323;28;20057;-73
2022/09/08 12:13:01;;;;;;;1.50;0.90;;;;;;;12.23;57.47;102463.75;5032041;28;20268;-71
2022/09/08 12:15:55;;;;;;;3.87;1.60;;;;;;;12.32;57.03;102472.81;5031571;28;20042;-71
2022/09/08 12:18:37;;;;;;;2.07;1.33;;;;;;;12.24;56.29;102475.28;5032327;28;20168;-71
2022/09/08 12:21:40;;;;;;;3.03;1.20;;;;;;;12.22;56.71;102478.09;5032322;28;20191;-76
2022/09/08 12:24:46;;;;;;;4.10;1.30;;;;;;;12.05;56.88;102482.19;5014651;28;20037;-69
2022/09/08 12:27:40;;;;;;;4.10;1.20;;;;;;;11.69;56.10;102479.94;5030873;28;20091;-72
2022/09/08 12:30:18;;;;;;;3.20;1.30;;;;;;;11.27;59.24;102463.81;5032740;28;20034;-78
2022/09/08 12:33:10;;;;;;;1.88;1.30;;;;;;;11.15;59.85;102470.16;5034654;28;20046;-73
2022/09/08 12:35:51;;;;;;;2.97;1.30;;;;;;;11.07;59.78;102461.94;5018680;28;20518;-73
2022/09/08 12:38:44;;;;;;;2.10;1.30;;;;;;;11.17;59.93;102484.22;5031034;28;20124;-73
2022/09/08 12:41:19;;;;;;;4.47;1.83;;;;;;;11.22;59.78;102476.69;5032173;28;20427;-72
2022/09/08 12:43:44;;;;;;;1.60;1.30;;;;;;;10.62;60.00;102363.41;5031913;28;20068;-73
2022/09/08 12:46:19;;;;;;;5.00;1.43;;;;;;;11.25;59.61;102460.44;5031962;28;20444;-73
2022/09/08 12:48:55;;;;;;;1.97;1.70;;;;;;;11.62;59.53;102471.59;5030571;28;20516;-71
2022/09/08 12:51:35;;;;;;;3.00;1.67;;;;;;;11.99;59.25;102468.53;5031189;28;20037;-72
2022/09/08 12:54:26;;;;;;;3.33;1.70;;;;;;;12.20;58.33;102463.19;5030872;28;20071;-69
2022/09/08 12:57:17;;;;;;;3.10;1.30;;;;;;;12.37;56.50;102460.72;5031220;28;20120;-71
2022/09/08 12:59:51;;;;;;;1.90;1.23;;;;;;;12.53;56.84;102478.97;5034853;28;20591;-72
2022/09/08 13:02:20;;;;;;;3.30;1.30;;;;;;;12.56;55.67;102484.03;5043901;28;20030;-70
2022/09/08 13:05:16;;;;;;;1.88;1.38;;;;;;;12.57;55.69;102487.56;5042943;28;20116;-71
2022/09/08 13:07:59;;;;;;;2.77;1.30;;;;;;;12.38;55.37;102480.28;5036541;28;20045;-72
2022/09/08 13:10:44;;;;;;;1.27;1.17;;;;;;;11.97;55.31;102443.78;5032314;28;20044;-72
2022/09/08 13:13:30;;;;;;;1.30;1.20;;;;;;;12.04;57.07;102469.81;5031433;28;20560;-73
2022/09/08 13:16:30;;;;;;;4.50;1.73;;;;;;;11.74;57.92;102483.06;5031810;28;20378;-71
2022/09/08 13:19:11;;;;;;;1.33;1.10;;;;;;;11.46;57.75;102487.16;5031669;28;20044;-71
2022/09/08 13:22:07;;;;;;;3.23;1.10;;;;;;;11.18;56.50;102488.56;5032055;28;20036;-75
2022/09/08 13:24:53;;;;;;;1.10;1.00;;;;;;;11.00;58.13;102492.75;5031834;28;20049;-75
2022/09/08 13:27:44;;;;;;;3.43;1.23;;;;;;;10.88;58.34;102491.88;5034250;28;20068;-76
2022/09/08 13:30:17;;;;;;;3.60;1.30;;;;;;;10.72;59.03;102460.31;5035796;28;20045;-73
2022/09/08 13:33:04;;;;;;;2.40;1.30;;;;;;;11.00;58.99;102493.59;5017733;28;20404;-74
2022/09/08 13:35:32;;;;;;;2.47;1.50;;;;;;;11.14;60.14;102485.31;5035500;28;20056;-72
2022/09/08 13:38:21;;;;;;;3.22;1.20;;;;;;;11.30;60.44;102486.75;5035143;28;20404;-73
2022/09/08 13:41:06;;;;;;;3.20;1.30;;;;;;;11.40;58.89;102485.00;5035240;28;20037;-73
2022/09/08 13:43:58;;;;;;;2.70;1.63;;;;;;;11.37;59.49;102480.78;5035536;28;20049;-73
2022/09/08 13:46:52;;;;;;;3.50;1.70;;;;;;;11.52;58.73;102483.13;5033045;28;20447;-76
2022/09/08 13:49:19;;;;;;;1.63;1.43;;;;;;;11.58;60.49;102485.31;5014242;28;20188;-71
2022/09/08 13:52:31;;;;;;;1.67;1.40;;;;;;;11.64;59.70;102484.81;5015741;28;20061;-75
2022/09/08 13:55:18;;;;;;;2.60;1.27;;;;;;;11.57;59.70;102467.63;5014875;28;20546;-74
2022/09/08 13:58:21;;;;;;;2.50;1.73;;;;;;;11.67;58.42;102488.06;5014301;28;20496;-75
2022/09/08 14:01:10;;;;;;;1.70;1.50;;;;;;;11.71;59.51;102494.00;5016069;28;20038;-75
2022/09/08 14:03:50;;;;;;;;;;;;;;;11.72;59.51;102490.34;5016033;28;20463;-77
2022/09/08 14:06:17;;;;;;;3.40;1.97;;;;;;;11.67;60.12;102487.22;5014769;28;19917;-77
2022/09/08 14:09:06;;;;;;;3.50;1.83;;;;;;;11.69;60.21;102485.28;5014932;28;20061;-75
2022/09/08 14:11:44;;;;;;;;;;;;;;;11.72;60.45;102490.34;5016167;28;20034;-75
2022/09/08 14:14:16;;;;;;;1.63;1.15;;;;;;;11.60;60.50;102488.72;5015464;28;19976;-79
2022/09/08 14:16:42;;;;;;;7.60;1.93;;;;;;;11.54;59.53;102499.88;5015752;28;20046;-77
2022/09/08 14:19:22;;;;;;;2.33;1.70;;;;;;;11.44;60.39;102486.44;5015028;28;20040;-78
2022/09/08 14:21:55;;;;;;;2.27;1.60;;;;;;;11.41;60.37;102481.38;5014839;28;20041;-78
2022/09/08 14:24:42;;;;;;;2.50;1.97;;;;;;;11.51;60.44;102495.63;5015057;28;20038;-78
2022/09/08 14:27:25;;;;;;;2.83;1.50;;;;;;;11.55;60.11;102493.56;5013883;28;20038;-77
2022/09/08 14:30:02;;;;;;;2.87;2.10;;;;;;;11.53;60.46;102471.50;5014834;28;20592;-78
2022/09/08 14:32:52;;;;;;;3.23;1.53;;;;;;;11.59;60.07;102484.34;5014682;28;20037;-78
2022/09/08 14:35:42;;;;;;;3.73;3.03;;;;;;;11.62;59.79;102487.59;5020304;28;20040;-76
2022/09/08 14:38:21;;;;;;;7.60;4.37;;;;;;;11.48;60.90;102470.06;5012611;28;20038;-76
2022/09/08 14:41:06;;;;;;;3.90;1.60;;;;;;;11.58;60.38;102494.19;5031515;28;20081;-78
2022/09/08 14:43:41;;;;;;;2.03;1.50;;;;;;;11.55;61.10;102488.22;5004905;28;20056;-74
2022/09/08 14:46:09;;;;;;;1.53;1.40;;;;;;;11.42;60.97;102480.38;5014736;28;20040;-77
2022/09/08 14:49:13;;;;;;;3.17;1.83;;;;;;;11.17;61.06;102457.53;5018942;28;20064;-74
2022/09/08 14:51:59;;;;;;;2.80;1.53;;;;;;;11.33;61.27;102484.66;5034289;28;20060;-75
2022/09/08 14:54:28;;;;;;;2.53;1.60;;;;;;;11.33;61.57;102487.34;5034576;28;20575;-76
2022/09/08 14:57:20;;;;;;;4.60;1.47;;;;;;;11.30;61.22;102487.59;5033657;28;20128;-74
2022/09/08 15:00:22;;;;;;;1.87;1.43;;;;;;;11.25;60.82;102488.91;5034262;28;20037;-78
2022/09/08 15:03:07;;;;;;;2.17;1.50;;;;;;;11.13;61.29;102482.78;5003641;28;20508;-76
2022/09/08 15:05:32;;;;;;;4.60;1.80;;;;;;;11.04;61.29;102494.19;5033615;28;20476;-74
2022/09/08 15:08:10;;;;;;;2.90;1.90;;;;;;;10.87;62.40;102492.88;5034456;28;20037;-76
2022/09/08 15:10:57;;;;;;;1.58;1.48;;;;;;;10.75;63.11;102481.38;5034305;28;20094;-77
2022/09/08 15:13:31;;;;;;;3.00;1.50;;;;;;;10.71;63.97;102495.91;5034245;28;20037;-77
2022/09/08 15:16:55;;;;;;;3.10;1.80;;;;;;;10.70;64.75;102499.56;5035013;28;20065;-75
2022/09/08 15:19:47;;;;;;;2.27;1.50;;;;;;;10.59;65.61;102480.88;4953509;29;20376;-76
2022/09/08 15:22:40;;;;;;;4.10;2.10;;;;;;;10.37;66.18;102462.22;5033867;28;20459;-74
2022/09/08 15:25:34;;;;;;;3.23;2.00;;;;;;;10.58;66.18;102496.97;5033680;28;20180;-76
2022/09/08 15:28:14;;;;;;;4.93;1.90;;;;;;;10.47;66.12;102484.50;5033760;28;20095;-76
2022/09/08 15:30:39;;;;;;;6.80;2.00;;;;;;;10.41;66.67;102485.84;5016190;28;20094;-80
2022/09/08 15:33:12;;;;;;;4.50;1.70;;;;;;;10.42;66.56;102495.53;5032190;28;20431;-77
2022/09/08 15:36:08;;;;;;;2.73;1.60;;;;;;;10.44;66.93;102490.94;5036269;28;20037;-77
2022/09/08 15:38:36;;;;;;;3.83;2.17;;;;;;;10.52;67.10;102499.16;5033322;28;20514;-76
2022/09/08 15:41:12;;;;;;;8.15;3.15;;;;;;;10.57;67.24;102496.13;5042916;28;20040;-77
2022/09/08 15:44:01;;;;;;;3.60;1.83;;;;;;;10.60;67.78;102495.03;5039540;28;20097;-77
2022/09/08 15:47:07;;;;;;;3.27;1.93;;;;;;;10.68;67.52;102497.94;5035610;28;20079;-77
2022/09/08 15:50:08;;;;;;;4.83;1.97;;;;;;;10.63;67.11;102468.16;5031194;28;20045;-74
2022/09/08 15:52:49;;;;;;;4.03;2.20;;;;;;;10.79;68.16;102496.16;5041121;28;20045;-77
2022/09/08 15:55:49;;;;;;;7.13;2.23;;;;;;;10.57;68.02;102464.16;5037165;28;20109;-79
2022/09/08 15:58:32;;;;;;;3.00;1.70;;;;;;;10.67;68.15;102501.56;5039819;28;20052;-74
2022/09/08 16:01:12;;;;;;;2.70;2.10;;;;;;;10.57;68.27;102503.28;5021511;28;20040;-74
2022/09/08 16:03:57;;;;;;;4.17;2.23;;;;;;;10.41;69.63;102496.50;5034392;28;20087;-76
2022/09/08 16:06:47;;;;;;;3.17;1.87;;;;;;;10.35;71.09;102490.78;5032939;28;20025;-75
2022/09/08 16:09:17;;;;;;;2.23;2.03;;;;;;;10.36;72.70;102503.13;5038267;28;20041;-74
2022/09/08 16:12:08;;;;;;;2.67;1.80;;;;;;;10.32;72.17;102501.66;4993759;28;20037;-76
2022/09/08 16:14:55;;;;;;;4.40;2.00;;;;;;;10.28;72.40;102497.56;5036582;28;20049;-76
2022/09/08 16:17:20;;;;;;;2.27;1.97;;;;;;;10.30;71.76;102492.94;5031646;28;20056;-74
2022/09/08 16:20:12;;;;;;;3.00;1.70;;;;;;;10.10;71.12;102465.16;5032632;28;20483;-74
2022/09/08 16:22:45;;;;;;;5.57;2.00;;;;;;;10.16;72.73;102486.84;5034945;28;20045;-76
2022/09/08 16:25:33;;;;;;;2.93;1.83;;;;;;;10.18;73.38;102502.72;5050724;28;20064;-76
2022/09/08 16:28:35;;;;;;;3.37;2.07;;;;;;;10.12;73.86;102493.38;5047061;28;20046;-76
2022/09/08 16:31:40;;;;;;;3.97;1.70;;;;;;;9.99;73.24;102495.28;5043466;28;20419;-77
2022/09/08 16:34:20;;;;;;;2.77;1.40;;;;;;;9.90;73.73;102495.97;5039366;28;20523;-76
2022/09/08 16:36:52;;;;;;;2.40;1.07;;;;;;;9.51;73.02;102442.13;5010553;28;20025;-76
2022/09/08 16:40:12;;;;;;;2.07;1.20;;;;;;;9.62;72.76;102476.78;5043778;28;20041;-73
2022/09/08 16:43:01;;;;;;;1.43;1.20;;;;;;;9.16;72.48;102422.63;5001405;28;20071;-76
2022/09/08 16:45:36;;;;;;;3.05;1.35;;;;;;;9.53;72.79;102488.06;5032306;28;20133;-75
2022/09/08 16:48:30;;;;;;;1.70;1.33;;;;;;;9.52;72.88;102507.66;5014411;28;20033;-75
2022/09/08 16:51:17;;;;;;;1.70;1.60;;;;;;;9.42;73.09;102506.63;4993404;28;20065;-75
2022/09/08 16:53:59;;;;;;;1.87;1.53;;;;;;;9.03;73.36;102456.38;4993406;28;20054;-78
2022/09/08 16:56:30;;;;;;;3.17;1.50;;;;;;;9.27;72.90;102508.63;4992687;28;20556;-72
2022/09/08 16:59:54;;;;;;;2.90;1.40;;;;;;;9.24;73.33;102510.63;4999364;28;20149;-72
2022/09/08 17:02:42;;;;;;;2.83;1.90;;;;;;;9.18;73.37;102503.94;4998283;28;20133;-75
2022/09/08 17:05:20;;;;;;;3.22;1.73;;;;;;;9.14;72.92;102512.25;4997459;28;20038;-77
2022/09/08 17:08:01;;;;;;;3.10;2.47;;;;;;;8.96;73.83;102499.34;4996978;28;20042;-71
2022/09/08 17:10:43;;;;;;;5.73;1.90;;;;;;;8.91;76.25;102504.13;4996841;28;20038;-75
2022/09/08 17:13:17;;;;;;;4.47;2.20;;;;;;;8.81;77.17;102511.06;4997343;28;20093;-72
2022/09/08 17:16:20;;;;;;;4.63;2.10;;;;;;;8.70;76.22;102518.94;5003584;28;20035;-75
2022/09/08 17:19:10;;;;;;;2.83;1.83;;;;;;;8.61;77.18;102514.25;5004830;28;20042;-73
2022/09/08 17:22:14;;;;;;;3.83;1.80;;;;;;;8.48;75.86;102506.31;4994007;28;20077;-75
2022/09/08 17:24:41;;;;;;;2.07;1.87;;;;;;;8.44;77.69;102514.59;4936244;29;20123;-72
2022/09/08 17:27:10;;;;;;;3.77;1.90;;;;;;;8.32;78.82;102509.13;4984421;28;20051;-73
2022/09/08 17:29:51;;;;;;;4.00;1.77;;;;;;;8.27;80.64;102521.88;4996501;28;20038;-72
2022/09/08 17:32:46;;;;;;;2.30;1.50;;;;;;;8.12;81.04;102509.66;4996569;28;20042;-73
2022/09/08 17:35:12;;;;;;;2.33;1.63;;;;;;;7.98;79.09;102499.13;4996943;28;20042;-72
2022/09/08 17:37:54;;;;;;;4.20;2.67;;;;;;;8.03;81.35;102518.22;4997487;28;20202;-72
2022/09/08 17:40:32;;;;;;;3.50;1.90;;;;;;;8.03;81.59;102518.22;4996347;28;20045;-73
2022/09/08 17:43:20;;;;;;;2.03;1.73;;;;;;;7.95;82.00;102524.06;4995941;28;20077;-75
2022/09/08 17:46:13;;;;;;;1.87;1.77;;;;;;;7.88;82.95;102524.56;4995878;28;20489;-74
2022/09/08 17:48:59;;;;;;;3.63;1.57;;;;;;;7.62;83.07;102492.66;5005316;28;20476;-74
2022/09/08 17:51:48;;;;;;;3.67;2.00;;;;;;;7.74;84.35;102525.47;5035615;28;20535;-75
2022/09/08 17:54:23;;;;;;;3.90;1.90;;;;;;;7.65;85.04;102524.28;5034988;28;20041;-76
2022/09/08 17:57:01;;;;;;;3.47;2.17;;;;;;;7.60;85.80;102526.38;5035395;28;20396;-76
2022/09/08 17:59:54;;;;;;;6.13;2.53;;;;;;;7.57;86.79;102526.59;5035501;28;20049;-74
2022/09/08 18:02:50;;;;;;;3.17;2.70;;;;;;;7.53;86.70;102530.41;5041275;28;20033;-76
2022/09/08 18:05:21;;;;;;;2.10;1.97;;;;;;;7.34;87.01;102519.28;5051687;28;20089;-74
2022/09/08 18:07:58;;;;;;;3.50;2.47;;;;;;;7.36;87.57;102520.03;5052638;28;20040;-73
2022/09/08 18:10:39;;;;;;;5.80;2.53;;;;;;;7.43;87.44;102537.22;5053997;28;20089;-73
2022/09/08 18:13:34;;;;;;;3.40;2.20;;;;;;;7.25;87.72;102522.53;5051172;28;20036;-74
2022/09/08 18:16:16;;;;;;;4.80;2.40;;;;;;;7.35;88.21;102544.81;5053255;28;20021;-76
2022/09/08 18:18:44;;;;;;;9.03;2.23;;;;;;;6.47;89.25;102408.28;5055761;28;20052;-71
2022/09/08 18:21:26;;;;;;;3.35;2.13;;;;;;;7.20;89.93;102536.03;5054490;28;20057;-73
2022/09/08 18:24:05;;;;;;;4.50;2.70;;;;;;;7.20;89.74;102548.44;5054441;28;20036;-73
2022/09/08 18:26:41;;;;;;;4.10;2.67;;;;;;;7.16;90.13;102547.78;5054453;28;20040;-72
2022/09/08 18:29:16;;;;;;;6.00;2.53;;;;;;;7.10;89.60;102543.72;5056033;28;20098;-74
2022/09/08 18:32:02;;;;;;;7.80;3.40;;;;;;;7.12;90.34;102546.28;5051414;28;20128;-75
2022/09/08 18:34:33;;;;;;;8.50;2.70;;;;;;;7.07;90.25;102548.38;5035040;28;20041;-73
2022/09/08 18:37:21;;;;;;;6.97;4.10;;;;;;;7.03;90.48;102560.97;5048661;28;20037;-75
2022/09/08 18:39:55;;;;;;;10.27;2.55;;;;;;;6.96;90.95;102551.69;5041939;28;20059;-74
2022/09/08 18:42:48;;;;;;;6.23;3.23;;;;;;;6.98;91.04;102562.19;5036033;28;20037;-73
2022/09/08 18:45:14;;;;;;;5.73;3.50;;;;;;;6.92;92.02;102555.47;4997839;28;20102;-74
2022/09/08 18:47:56;;;;;;;4.60;3.03;;;;;;;6.89;92.30;102558.31;5034742;28;20555;-74
2022/09/08 18:50:55;;;;;;;6.23;3.60;;;;;;;6.84;92.20;102549.78;5034573;28;20060;-77
2022/09/08 18:53:32;;;;;;;6.30;3.80;;;;;;;6.87;92.97;102557.56;5035692;28;20049;-75
2022/09/08 18:56:10;;;;;;;11.00;4.17;;;;;;;6.79;92.93;102560.69;5021365;28;20412;-74
2022/09/08 18:59:01;;;;;;;7.77;3.70;;;;;;;6.87;93.43;102562.84;5034627;28;20037;-73
2022/09/08 19:01:40;;;;;;;10.03;5.10;;;;;;;6.87;93.90;102564.66;5034401;28;20068;-73
2022/09/08 19:04:13;;;;;;;;;;;;;;;6.86;92.22;102566.44;5034434;28;20056;-74
2022/09/08 19:06:51;;;;;;;9.47;5.80;;;;;;;6.82;93.28;102564.94;5020408;28;19917;-74
2022/09/08 19:09:25;;;;;;;13.70;7.93;;;;;;;6.77;94.15;102562.56;5035703;28;20037;-74
2022/09/08 19:12:40;;;;;;;16.40;9.30;;;;;;;6.56;93.80;102536.53;5018366;28;20041;-74
2022/09/08 19:15:53;;;;;;;14.73;6.63;;;;;;;6.71;94.71;102572.69;4994825;28;20103;-70
2022/09/08 19:18:36;;;;;;;11.43;7.83;;;;;;;6.68;95.40;102568.44;4987380;28;20045;-74
2022/09/08 19:21:04;;;;;;;11.60;7.03;;;;;;;6.62;95.38;102567.94;5016803;28;20111;-72
2022/09/08 19:23:35;;;;;;;13.60;6.85;;;;;;;6.51;96.44;102553.56;5035096;28;20025;-75
2022/09/08 19:26:11;;;;;;;9.90;7.17;;;;;;;6.51;96.21;102561.50;5016050;28;20404;-74
2022/09/08 19:28:38;;;;;;;13.80;8.13;;;;;;;6.50;96.73;102570.38;5033978;28;20045;-76
2022/09/08 19:31:34;;;;;;;14.17;8.20;;;;;;;6.50;96.36;102558.94;5033138;28;20373;-74
2022/09/08 19:34:06;;;;;;;14.20;7.93;;;;;;;6.59;96.32;102584.00;5033247;28;20518;-74
2022/09/08 19:36:43;;;;;;;12.37;7.93;;;;;;;6.62;97.02;102583.81;5033116;28;20081;-73
2022/09/08 19:39:10;;;;;;;19.23;10.30;;;;;;;6.45;96.78;102561.88;5015248;28;20045;-75
2022/09/08 19:42:14;;;;;;;14.33;8.97;;;;;;;6.64;96.85;102582.78;5033551;28;20026;-73
2022/09/08 19:45:04;;;;;;;17.90;9.43;;;;;;;6.62;97.05;102589.13;5033071;28;20120;-73
2022/09/08 19:47:45;;;;;;;17.10;9.33;;;;;;;6.60;97.75;102586.56;5032933;28;20049;-73
2022/09/08 19:50:49;;;;;;;15.70;9.97;;;;;;;6.61;97.42;102592.72;5031401;28;20469;-74
2022/09/08 19:53:34;;;;;;;17.53;11.37;;;;;;;6.55;98.26;102582.50;5032735;28;20099;-73
2022/09/08 19:56:04;;;;;;;20.60;10.83;;;;;;;6.61;98.61;102601.50;5031774;28;20048;-74
2022/09/08 19:58:42;;;;;;;21.97;11.93;;;;;;;6.62;98.05;102594.41;5031823;28;20029;-73
2022/09/08 20:01:14;;;;;;;17.27;11.00;;;;;;;6.73;98.00;102597.28;5039574;28;20029;-74
2022/09/08 20:03:50;;;;;;;18.20;10.93;;;;;;;6.65;98.21;102581.88;5032608;28;20053;-75
2022/09/08 20:06:30;;;;;;;18.97;11.77;;;;;;;6.83;97.44;102599.25;5015294;28;20427;-73
